sensor_id;sensor_type;location;lat;lon;timestamp;P1;durP1;ratioP1;P2;durP2;ratioP2
64875;SDS011;51369;49.862;9.908;2023-10-19T00:00:35;26.85;;;17.23;;
64875;SDS011;51369;49.862;9.908;2023-10-19T00:03:06;24.92;;;17.10;;
64875;SDS011;51369;49.862;9.908;2023-10-19T00:05:32;32.08;;;17.50;;
64875;SDS011;51369;49.862;9.908;2023-10-19T00:08:01;26.42;;;16.85;;
64875;SDS011;51369;49.862;9.908;2023-10-19T00:10:40;25.23;;;17.70;;
64875;SDS011;51369;49.862;9.908;2023-10-19T00:13:08;27.83;;;18.42;;
64875;SDS011;51369;49.862;9.908;2023-10-19T00:15:37;32.22;;;17.55;;
64875;SDS011;51369;49.862;9.908;2023-10-19T00:18:06;29.75;;;18.95;;
64875;SDS011;51369;49.862;9.908;2023-10-19T00:20:41;25.40;;;16.52;;
64875;SDS011;51369;49.862;9.908;2023-10-19T00:23:28;25.08;;;16.80;;
64875;SDS011;51369;49.862;9.908;2023-10-19T00:26:00;27.52;;;18.60;;
64875;SDS011;51369;49.862;9.908;2023-10-19T00:28:38;28.25;;;18.90;;
64875;SDS011;51369;49.862;9.908;2023-10-19T00:31:04;27.48;;;18.60;;
64875;SDS011;51369;49.862;9.908;2023-10-19T00:33:33;30.95;;;18.25;;
64875;SDS011;51369;49.862;9.908;2023-10-19T00:36:07;27.92;;;19.42;;
64875;SDS011;51369;49.862;9.908;2023-10-19T00:38:35;29.73;;;18.40;;
64875;SDS011;51369;49.862;9.908;2023-10-19T00:41:01;30.88;;;18.08;;
64875;SDS011;51369;49.862;9.908;2023-10-19T00:43:37;29.10;;;18.60;;
64875;SDS011;51369;49.862;9.908;2023-10-19T00:46:10;30.92;;;18.65;;
64875;SDS011;51369;49.862;9.908;2023-10-19T00:51:14;27.23;;;18.92;;
64875;SDS011;51369;49.862;9.908;2023-10-19T00:56:25;27.85;;;17.48;;
64875;SDS011;51369;49.862;9.908;2023-10-19T00:58:54;31.77;;;20.33;;
64875;SDS011;51369;49.862;9.908;2023-10-19T01:01:26;30.83;;;19.35;;
64875;SDS011;51369;49.862;9.908;2023-10-19T01:03:54;28.95;;;18.77;;
64875;SDS011;51369;49.862;9.908;2023-10-19T01:06:22;26.75;;;18.55;;
64875;SDS011;51369;49.862;9.908;2023-10-19T01:08:48;29.20;;;19.00;;
64875;SDS011;51369;49.862;9.908;2023-10-19T01:11:16;31.75;;;20.13;;
64875;SDS011;51369;49.862;9.908;2023-10-19T01:13:45;29.30;;;19.08;;
64875;SDS011;51369;49.862;9.908;2023-10-19T01:16:13;30.70;;;18.15;;
64875;SDS011;51369;49.862;9.908;2023-10-19T01:18:47;32.50;;;19.65;;
64875;SDS011;51369;49.862;9.908;2023-10-19T01:21:13;31.88;;;18.95;;
64875;SDS011;51369;49.862;9.908;2023-10-19T01:23:39;30.60;;;19.25;;
64875;SDS011;51369;49.862;9.908;2023-10-19T01:26:04;30.67;;;20.95;;
64875;SDS011;51369;49.862;9.908;2023-10-19T01:28:34;31.55;;;19.80;;
64875;SDS011;51369;49.862;9.908;2023-10-19T01:31:13;30.27;;;20.15;;
64875;SDS011;51369;49.862;9.908;2023-10-19T01:33:43;29.23;;;19.00;;
64875;SDS011;51369;49.862;9.908;2023-10-19T01:36:09;31.02;;;19.88;;
64875;SDS011;51369;49.862;9.908;2023-10-19T01:38:35;34.83;;;20.38;;
64875;SDS011;51369;49.862;9.908;2023-10-19T01:41:01;33.25;;;21.13;;
64875;SDS011;51369;49.862;9.908;2023-10-19T01:43:31;31.73;;;20.13;;
64875;SDS011;51369;49.862;9.908;2023-10-19T01:45:58;31.00;;;21.08;;
64875;SDS011;51369;49.862;9.908;2023-10-19T01:48:29;33.03;;;20.70;;
64875;SDS011;51369;49.862;9.908;2023-10-19T01:51:04;29.70;;;20.35;;
64875;SDS011;51369;49.862;9.908;2023-10-19T01:53:33;30.92;;;21.10;;
64875;SDS011;51369;49.862;9.908;2023-10-19T01:56:01;34.08;;;21.77;;
64875;SDS011;51369;49.862;9.908;2023-10-19T01:58:30;36.38;;;20.88;;
64875;SDS011;51369;49.862;9.908;2023-10-19T02:01:01;34.17;;;21.52;;
64875;SDS011;51369;49.862;9.908;2023-10-19T02:03:33;32.65;;;21.02;;
64875;SDS011;51369;49.862;9.908;2023-10-19T02:05:58;34.58;;;20.88;;
64875;SDS011;51369;49.862;9.908;2023-10-19T02:08:24;33.92;;;21.40;;
64875;SDS011;51369;49.862;9.908;2023-10-19T02:10:52;35.00;;;22.05;;
64875;SDS011;51369;49.862;9.908;2023-10-19T02:13:18;34.83;;;21.77;;
64875;SDS011;51369;49.862;9.908;2023-10-19T02:15:44;34.83;;;22.00;;
64875;SDS011;51369;49.862;9.908;2023-10-19T02:18:10;36.17;;;22.65;;
64875;SDS011;51369;49.862;9.908;2023-10-19T02:20:36;34.55;;;21.88;;
64875;SDS011;51369;49.862;9.908;2023-10-19T02:23:06;34.30;;;22.05;;
64875;SDS011;51369;49.862;9.908;2023-10-19T02:25:33;34.10;;;22.35;;
64875;SDS011;51369;49.862;9.908;2023-10-19T02:28:05;34.60;;;22.67;;
64875;SDS011;51369;49.862;9.908;2023-10-19T02:33:00;35.20;;;21.92;;
64875;SDS011;51369;49.862;9.908;2023-10-19T02:35:26;38.50;;;23.30;;
64875;SDS011;51369;49.862;9.908;2023-10-19T02:37:53;38.58;;;23.20;;
64875;SDS011;51369;49.862;9.908;2023-10-19T02:40:18;37.95;;;22.88;;
64875;SDS011;51369;49.862;9.908;2023-10-19T02:42:49;39.45;;;23.52;;
64875;SDS011;51369;49.862;9.908;2023-10-19T02:45:18;37.55;;;24.00;;
64875;SDS011;51369;49.862;9.908;2023-10-19T02:47:45;35.13;;;23.92;;
64875;SDS011;51369;49.862;9.908;2023-10-19T02:50:11;37.75;;;23.83;;
64875;SDS011;51369;49.862;9.908;2023-10-19T02:52:41;39.92;;;24.33;;
64875;SDS011;51369;49.862;9.908;2023-10-19T02:55:08;37.72;;;23.45;;
64875;SDS011;51369;49.862;9.908;2023-10-19T02:57:35;38.67;;;24.27;;
64875;SDS011;51369;49.862;9.908;2023-10-19T03:00:02;39.88;;;25.30;;
64875;SDS011;51369;49.862;9.908;2023-10-19T03:05:01;37.63;;;22.90;;
64875;SDS011;51369;49.862;9.908;2023-10-19T03:07:34;42.13;;;24.48;;
64875;SDS011;51369;49.862;9.908;2023-10-19T03:10:00;43.00;;;24.98;;
64875;SDS011;51369;49.862;9.908;2023-10-19T03:12:27;42.05;;;25.75;;
64875;SDS011;51369;49.862;9.908;2023-10-19T03:14:52;36.85;;;24.10;;
64875;SDS011;51369;49.862;9.908;2023-10-19T03:17:18;42.53;;;25.55;;
64875;SDS011;51369;49.862;9.908;2023-10-19T03:19:43;38.78;;;25.30;;
64875;SDS011;51369;49.862;9.908;2023-10-19T03:22:09;42.35;;;25.42;;
64875;SDS011;51369;49.862;9.908;2023-10-19T03:24:35;39.88;;;25.45;;
64875;SDS011;51369;49.862;9.908;2023-10-19T03:27:06;47.38;;;26.15;;
64875;SDS011;51369;49.862;9.908;2023-10-19T03:29:49;39.47;;;26.48;;
64875;SDS011;51369;49.862;9.908;2023-10-19T03:32:21;38.65;;;24.90;;
64875;SDS011;51369;49.862;9.908;2023-10-19T03:34:57;37.72;;;24.48;;
64875;SDS011;51369;49.862;9.908;2023-10-19T03:37:27;42.25;;;24.58;;
64875;SDS011;51369;49.862;9.908;2023-10-19T03:39:55;46.45;;;25.70;;
64875;SDS011;51369;49.862;9.908;2023-10-19T03:42:21;38.17;;;25.55;;
64875;SDS011;51369;49.862;9.908;2023-10-19T03:44:50;43.22;;;26.48;;
64875;SDS011;51369;49.862;9.908;2023-10-19T03:47:16;42.40;;;25.50;;
64875;SDS011;51369;49.862;9.908;2023-10-19T03:49:46;41.20;;;26.05;;
64875;SDS011;51369;49.862;9.908;2023-10-19T03:52:12;44.58;;;24.65;;
64875;SDS011;51369;49.862;9.908;2023-10-19T03:54:38;38.58;;;26.02;;
64875;SDS011;51369;49.862;9.908;2023-10-19T03:57:05;44.22;;;26.08;;
64875;SDS011;51369;49.862;9.908;2023-10-19T03:59:54;38.67;;;25.13;;
64875;SDS011;51369;49.862;9.908;2023-10-19T04:02:22;37.55;;;24.33;;
64875;SDS011;51369;49.862;9.908;2023-10-19T04:05:00;42.85;;;26.35;;
64875;SDS011;51369;49.862;9.908;2023-10-19T04:07:26;45.78;;;28.23;;
64875;SDS011;51369;49.862;9.908;2023-10-19T04:09:56;43.65;;;27.58;;
64875;SDS011;51369;49.862;9.908;2023-10-19T04:12:24;42.33;;;25.65;;
64875;SDS011;51369;49.862;9.908;2023-10-19T04:14:50;43.53;;;26.92;;
64875;SDS011;51369;49.862;9.908;2023-10-19T04:17:15;41.53;;;25.30;;
64875;SDS011;51369;49.862;9.908;2023-10-19T04:19:46;43.13;;;26.65;;
64875;SDS011;51369;49.862;9.908;2023-10-19T04:22:13;41.22;;;26.48;;
64875;SDS011;51369;49.862;9.908;2023-10-19T04:24:47;43.13;;;26.48;;
64875;SDS011;51369;49.862;9.908;2023-10-19T04:27:12;40.30;;;24.63;;
64875;SDS011;51369;49.862;9.908;2023-10-19T04:29:38;43.72;;;26.50;;
64875;SDS011;51369;49.862;9.908;2023-10-19T04:32:06;39.58;;;25.90;;
64875;SDS011;51369;49.862;9.908;2023-10-19T04:34:32;38.42;;;25.00;;
64875;SDS011;51369;49.862;9.908;2023-10-19T04:36:57;35.65;;;24.02;;
64875;SDS011;51369;49.862;9.908;2023-10-19T04:39:22;42.03;;;26.70;;
64875;SDS011;51369;49.862;9.908;2023-10-19T04:41:49;42.10;;;26.58;;
64875;SDS011;51369;49.862;9.908;2023-10-19T04:44:14;41.92;;;25.60;;
64875;SDS011;51369;49.862;9.908;2023-10-19T04:46:40;41.13;;;25.77;;
64875;SDS011;51369;49.862;9.908;2023-10-19T04:49:06;42.95;;;26.33;;
64875;SDS011;51369;49.862;9.908;2023-10-19T04:51:31;45.33;;;27.40;;
64875;SDS011;51369;49.862;9.908;2023-10-19T04:53:58;45.95;;;27.95;;
64875;SDS011;51369;49.862;9.908;2023-10-19T04:56:24;44.35;;;27.05;;
64875;SDS011;51369;49.862;9.908;2023-10-19T04:58:49;44.35;;;26.45;;
64875;SDS011;51369;49.862;9.908;2023-10-19T05:01:14;43.40;;;26.80;;
64875;SDS011;51369;49.862;9.908;2023-10-19T05:03:41;41.45;;;25.20;;
64875;SDS011;51369;49.862;9.908;2023-10-19T05:06:07;41.88;;;26.25;;
64875;SDS011;51369;49.862;9.908;2023-10-19T05:08:34;43.50;;;26.17;;
64875;SDS011;51369;49.862;9.908;2023-10-19T05:11:00;41.67;;;27.60;;
64875;SDS011;51369;49.862;9.908;2023-10-19T05:13:26;41.72;;;26.52;;
64875;SDS011;51369;49.862;9.908;2023-10-19T05:15:55;45.20;;;27.15;;
64875;SDS011;51369;49.862;9.908;2023-10-19T05:18:21;49.83;;;27.75;;
64875;SDS011;51369;49.862;9.908;2023-10-19T05:20:47;44.60;;;27.15;;
64875;SDS011;51369;49.862;9.908;2023-10-19T05:23:14;48.88;;;28.73;;
64875;SDS011;51369;49.862;9.908;2023-10-19T05:25:40;47.78;;;28.02;;
64875;SDS011;51369;49.862;9.908;2023-10-19T05:28:06;48.42;;;27.38;;
64875;SDS011;51369;49.862;9.908;2023-10-19T05:30:32;44.25;;;27.63;;
64875;SDS011;51369;49.862;9.908;2023-10-19T05:32:58;45.22;;;28.85;;
64875;SDS011;51369;49.862;9.908;2023-10-19T05:35:26;41.33;;;25.50;;
64875;SDS011;51369;49.862;9.908;2023-10-19T05:37:53;46.22;;;27.23;;
64875;SDS011;51369;49.862;9.908;2023-10-19T05:40:20;44.72;;;27.55;;
64875;SDS011;51369;49.862;9.908;2023-10-19T05:42:48;46.15;;;27.00;;
64875;SDS011;51369;49.862;9.908;2023-10-19T05:45:14;44.65;;;26.23;;
64875;SDS011;51369;49.862;9.908;2023-10-19T05:47:41;40.13;;;26.33;;
64875;SDS011;51369;49.862;9.908;2023-10-19T05:50:09;46.70;;;27.02;;
64875;SDS011;51369;49.862;9.908;2023-10-19T05:52:35;42.05;;;26.58;;
64875;SDS011;51369;49.862;9.908;2023-10-19T05:55:01;42.10;;;26.20;;
64875;SDS011;51369;49.862;9.908;2023-10-19T05:57:26;47.92;;;25.88;;
64875;SDS011;51369;49.862;9.908;2023-10-19T05:59:51;44.10;;;27.48;;
64875;SDS011;51369;49.862;9.908;2023-10-19T06:02:16;40.03;;;25.83;;
64875;SDS011;51369;49.862;9.908;2023-10-19T06:04:43;43.25;;;26.17;;
64875;SDS011;51369;49.862;9.908;2023-10-19T06:07:08;41.78;;;27.35;;
64875;SDS011;51369;49.862;9.908;2023-10-19T06:09:35;43.50;;;25.85;;
64875;SDS011;51369;49.862;9.908;2023-10-19T06:12:01;46.15;;;28.00;;
64875;SDS011;51369;49.862;9.908;2023-10-19T06:14:27;45.05;;;27.80;;
64875;SDS011;51369;49.862;9.908;2023-10-19T06:16:55;48.05;;;27.52;;
64875;SDS011;51369;49.862;9.908;2023-10-19T06:19:21;45.00;;;27.17;;
64875;SDS011;51369;49.862;9.908;2023-10-19T06:21:47;43.20;;;26.67;;
64875;SDS011;51369;49.862;9.908;2023-10-19T06:24:12;44.60;;;26.05;;
64875;SDS011;51369;49.862;9.908;2023-10-19T06:26:41;49.92;;;27.38;;
64875;SDS011;51369;49.862;9.908;2023-10-19T06:29:07;44.05;;;26.58;;
64875;SDS011;51369;49.862;9.908;2023-10-19T06:31:33;44.70;;;26.55;;
64875;SDS011;51369;49.862;9.908;2023-10-19T06:33:58;45.40;;;27.55;;
64875;SDS011;51369;49.862;9.908;2023-10-19T06:36:25;48.70;;;28.13;;
64875;SDS011;51369;49.862;9.908;2023-10-19T06:38:51;45.70;;;27.25;;
64875;SDS011;51369;49.862;9.908;2023-10-19T06:41:16;46.58;;;27.45;;
64875;SDS011;51369;49.862;9.908;2023-10-19T06:43:43;48.45;;;27.92;;
64875;SDS011;51369;49.862;9.908;2023-10-19T06:46:08;48.95;;;28.35;;
64875;SDS011;51369;49.862;9.908;2023-10-19T06:48:36;44.92;;;27.23;;
64875;SDS011;51369;49.862;9.908;2023-10-19T06:51:02;57.03;;;30.30;;
64875;SDS011;51369;49.862;9.908;2023-10-19T06:53:27;47.83;;;27.83;;
64875;SDS011;51369;49.862;9.908;2023-10-19T06:55:53;51.20;;;29.02;;
64875;SDS011;51369;49.862;9.908;2023-10-19T06:58:19;47.25;;;28.33;;
64875;SDS011;51369;49.862;9.908;2023-10-19T07:00:45;49.92;;;29.73;;
64875;SDS011;51369;49.862;9.908;2023-10-19T07:03:21;53.53;;;29.00;;
64875;SDS011;51369;49.862;9.908;2023-10-19T07:05:48;46.90;;;29.60;;
64875;SDS011;51369;49.862;9.908;2023-10-19T07:08:15;55.78;;;30.27;;
64875;SDS011;51369;49.862;9.908;2023-10-19T07:10:40;54.28;;;30.25;;
64875;SDS011;51369;49.862;9.908;2023-10-19T07:13:06;59.83;;;30.52;;
64875;SDS011;51369;49.862;9.908;2023-10-19T07:15:31;54.88;;;31.33;;
64875;SDS011;51369;49.862;9.908;2023-10-19T07:17:56;54.13;;;31.08;;
64875;SDS011;51369;49.862;9.908;2023-10-19T07:20:23;56.75;;;30.70;;
64875;SDS011;51369;49.862;9.908;2023-10-19T07:23:08;56.05;;;30.25;;
64875;SDS011;51369;49.862;9.908;2023-10-19T07:25:52;59.05;;;31.45;;
64875;SDS011;51369;49.862;9.908;2023-10-19T07:28:21;52.13;;;30.20;;
64875;SDS011;51369;49.862;9.908;2023-10-19T07:30:51;61.22;;;33.58;;
64875;SDS011;51369;49.862;9.908;2023-10-19T07:33:17;59.08;;;32.47;;
64875;SDS011;51369;49.862;9.908;2023-10-19T07:35:45;64.20;;;32.30;;
64875;SDS011;51369;49.862;9.908;2023-10-19T07:38:15;63.55;;;33.33;;
64875;SDS011;51369;49.862;9.908;2023-10-19T07:40:42;66.22;;;34.50;;
64875;SDS011;51369;49.862;9.908;2023-10-19T07:43:08;68.72;;;33.40;;
64875;SDS011;51369;49.862;9.908;2023-10-19T07:45:34;74.03;;;35.10;;
64875;SDS011;51369;49.862;9.908;2023-10-19T07:48:02;69.18;;;34.33;;
64875;SDS011;51369;49.862;9.908;2023-10-19T07:50:36;70.40;;;33.08;;
64875;SDS011;51369;49.862;9.908;2023-10-19T07:53:03;61.05;;;33.78;;
64875;SDS011;51369;49.862;9.908;2023-10-19T07:55:29;64.22;;;33.88;;
64875;SDS011;51369;49.862;9.908;2023-10-19T07:57:58;70.72;;;34.35;;
64875;SDS011;51369;49.862;9.908;2023-10-19T08:00:31;74.47;;;33.97;;
64875;SDS011;51369;49.862;9.908;2023-10-19T08:03:01;81.97;;;34.17;;
64875;SDS011;51369;49.862;9.908;2023-10-19T08:05:27;75.35;;;34.50;;
64875;SDS011;51369;49.862;9.908;2023-10-19T08:07:53;79.40;;;32.75;;
64875;SDS011;51369;49.862;9.908;2023-10-19T08:10:19;78.15;;;35.22;;
64875;SDS011;51369;49.862;9.908;2023-10-19T08:12:46;75.75;;;34.03;;
64875;SDS011;51369;49.862;9.908;2023-10-19T08:15:13;79.95;;;35.20;;
64875;SDS011;51369;49.862;9.908;2023-10-19T08:17:41;73.20;;;33.70;;
64875;SDS011;51369;49.862;9.908;2023-10-19T08:20:08;70.72;;;35.05;;
64875;SDS011;51369;49.862;9.908;2023-10-19T08:22:37;72.03;;;33.50;;
64875;SDS011;51369;49.862;9.908;2023-10-19T08:25:03;79.35;;;32.60;;
64875;SDS011;51369;49.862;9.908;2023-10-19T08:27:30;63.83;;;29.55;;
64875;SDS011;51369;49.862;9.908;2023-10-19T08:29:58;65.20;;;29.58;;
64875;SDS011;51369;49.862;9.908;2023-10-19T08:32:23;69.95;;;28.95;;
64875;SDS011;51369;49.862;9.908;2023-10-19T08:34:49;56.30;;;29.67;;
64875;SDS011;51369;49.862;9.908;2023-10-19T08:37:15;62.83;;;29.88;;
64875;SDS011;51369;49.862;9.908;2023-10-19T08:39:40;64.05;;;29.52;;
64875;SDS011;51369;49.862;9.908;2023-10-19T08:42:08;70.18;;;31.33;;
64875;SDS011;51369;49.862;9.908;2023-10-19T08:44:35;62.15;;;25.20;;
64875;SDS011;51369;49.862;9.908;2023-10-19T08:47:01;62.55;;;26.00;;
64875;SDS011;51369;49.862;9.908;2023-10-19T08:49:26;49.70;;;24.08;;
64875;SDS011;51369;49.862;9.908;2023-10-19T08:51:52;65.65;;;29.30;;
64875;SDS011;51369;49.862;9.908;2023-10-19T08:54:19;69.10;;;28.10;;
64875;SDS011;51369;49.862;9.908;2023-10-19T08:56:45;54.85;;;29.75;;
64875;SDS011;51369;49.862;9.908;2023-10-19T08:59:12;67.93;;;30.33;;
64875;SDS011;51369;49.862;9.908;2023-10-19T09:01:42;62.00;;;31.88;;
64875;SDS011;51369;49.862;9.908;2023-10-19T09:04:11;58.75;;;30.60;;
64875;SDS011;51369;49.862;9.908;2023-10-19T09:06:39;61.08;;;31.25;;
64875;SDS011;51369;49.862;9.908;2023-10-19T09:09:09;63.00;;;31.88;;
64875;SDS011;51369;49.862;9.908;2023-10-19T09:11:42;64.57;;;33.50;;
64875;SDS011;51369;49.862;9.908;2023-10-19T09:14:08;77.18;;;36.88;;
64875;SDS011;51369;49.862;9.908;2023-10-19T09:16:33;78.60;;;37.20;;
64875;SDS011;51369;49.862;9.908;2023-10-19T09:18:59;89.00;;;39.08;;
64875;SDS011;51369;49.862;9.908;2023-10-19T09:21:24;93.35;;;38.17;;
64875;SDS011;51369;49.862;9.908;2023-10-19T09:23:52;86.07;;;40.35;;
64875;SDS011;51369;49.862;9.908;2023-10-19T09:26:20;88.50;;;40.40;;
64875;SDS011;51369;49.862;9.908;2023-10-19T09:28:47;91.72;;;39.05;;
64875;SDS011;51369;49.862;9.908;2023-10-19T09:31:13;86.57;;;39.25;;
64875;SDS011;51369;49.862;9.908;2023-10-19T09:33:41;83.80;;;38.40;;
64875;SDS011;51369;49.862;9.908;2023-10-19T09:36:12;84.72;;;39.63;;
64875;SDS011;51369;49.862;9.908;2023-10-19T09:38:48;78.93;;;39.53;;
64875;SDS011;51369;49.862;9.908;2023-10-19T09:41:22;69.15;;;38.10;;
64875;SDS011;51369;49.862;9.908;2023-10-19T09:43:53;73.85;;;37.28;;
64875;SDS011;51369;49.862;9.908;2023-10-19T09:46:32;67.75;;;37.53;;
64875;SDS011;51369;49.862;9.908;2023-10-19T09:49:01;65.15;;;35.47;;
64875;SDS011;51369;49.862;9.908;2023-10-19T09:51:27;64.20;;;37.00;;
64875;SDS011;51369;49.862;9.908;2023-10-19T09:53:59;66.47;;;36.25;;
64875;SDS011;51369;49.862;9.908;2023-10-19T09:56:36;59.80;;;36.42;;
64875;SDS011;51369;49.862;9.908;2023-10-19T09:59:10;79.47;;;39.15;;
64875;SDS011;51369;49.862;9.908;2023-10-19T10:02:02;67.65;;;37.10;;
64875;SDS011;51369;49.862;9.908;2023-10-19T10:04:30;64.95;;;36.20;;
64875;SDS011;51369;49.862;9.908;2023-10-19T10:06:57;63.17;;;36.35;;
64875;SDS011;51369;49.862;9.908;2023-10-19T10:09:25;70.10;;;36.40;;
64875;SDS011;51369;49.862;9.908;2023-10-19T10:11:51;65.47;;;36.50;;
64875;SDS011;51369;49.862;9.908;2023-10-19T10:14:27;61.05;;;35.95;;
64875;SDS011;51369;49.862;9.908;2023-10-19T10:17:01;58.67;;;34.97;;
64875;SDS011;51369;49.862;9.908;2023-10-19T10:19:27;58.38;;;35.72;;
64875;SDS011;51369;49.862;9.908;2023-10-19T10:22:09;60.25;;;35.15;;
64875;SDS011;51369;49.862;9.908;2023-10-19T10:24:43;66.95;;;35.08;;
64875;SDS011;51369;49.862;9.908;2023-10-19T10:27:09;59.33;;;34.13;;
64875;SDS011;51369;49.862;9.908;2023-10-19T10:29:35;62.90;;;36.10;;
64875;SDS011;51369;49.862;9.908;2023-10-19T10:32:01;55.45;;;35.33;;
64875;SDS011;51369;49.862;9.908;2023-10-19T10:36:59;53.63;;;33.28;;
64875;SDS011;51369;49.862;9.908;2023-10-19T10:39:27;57.00;;;34.42;;
64875;SDS011;51369;49.862;9.908;2023-10-19T10:42:00;60.38;;;35.28;;
64875;SDS011;51369;49.862;9.908;2023-10-19T10:45:12;51.58;;;33.63;;
64875;SDS011;51369;49.862;9.908;2023-10-19T10:47:21;49.97;;;31.35;;
64875;SDS011;51369;49.862;9.908;2023-10-19T10:49:51;48.63;;;32.65;;
64875;SDS011;51369;49.862;9.908;2023-10-19T10:54:57;45.50;;;30.38;;
64875;SDS011;51369;49.862;9.908;2023-10-19T10:57:31;44.47;;;31.05;;
64875;SDS011;51369;49.862;9.908;2023-10-19T11:00:01;43.38;;;30.63;;
64875;SDS011;51369;49.862;9.908;2023-10-19T11:02:34;46.17;;;29.38;;
64875;SDS011;51369;49.862;9.908;2023-10-19T11:05:00;40.88;;;29.42;;
64875;SDS011;51369;49.862;9.908;2023-10-19T11:07:26;43.30;;;29.65;;
64875;SDS011;51369;49.862;9.908;2023-10-19T11:09:51;42.65;;;29.38;;
64875;SDS011;51369;49.862;9.908;2023-10-19T11:12:17;39.63;;;28.95;;
64875;SDS011;51369;49.862;9.908;2023-10-19T11:14:56;40.38;;;29.92;;
64875;SDS011;51369;49.862;9.908;2023-10-19T11:17:24;39.50;;;28.65;;
64875;SDS011;51369;49.862;9.908;2023-10-19T11:19:55;39.15;;;28.92;;
64875;SDS011;51369;49.862;9.908;2023-10-19T11:22:23;39.65;;;28.65;;
64875;SDS011;51369;49.862;9.908;2023-10-19T11:24:50;37.95;;;28.38;;
64875;SDS011;51369;49.862;9.908;2023-10-19T11:27:23;39.55;;;28.15;;
64875;SDS011;51369;49.862;9.908;2023-10-19T11:29:56;37.92;;;26.55;;
64875;SDS011;51369;49.862;9.908;2023-10-19T11:32:24;40.10;;;27.25;;
64875;SDS011;51369;49.862;9.908;2023-10-19T11:34:56;40.55;;;26.13;;
64875;SDS011;51369;49.862;9.908;2023-10-19T11:37:21;33.40;;;25.70;;
64875;SDS011;51369;49.862;9.908;2023-10-19T11:39:48;33.20;;;24.35;;
64875;SDS011;51369;49.862;9.908;2023-10-19T11:42:15;35.72;;;25.50;;
64875;SDS011;51369;49.862;9.908;2023-10-19T11:44:43;31.95;;;25.33;;
64875;SDS011;51369;49.862;9.908;2023-10-19T11:47:09;35.38;;;24.95;;
64875;SDS011;51369;49.862;9.908;2023-10-19T11:49:35;37.95;;;25.42;;
64875;SDS011;51369;49.862;9.908;2023-10-19T11:52:03;32.45;;;24.08;;
64875;SDS011;51369;49.862;9.908;2023-10-19T11:54:30;36.70;;;24.17;;
64875;SDS011;51369;49.862;9.908;2023-10-19T11:56:56;32.70;;;24.63;;
64875;SDS011;51369;49.862;9.908;2023-10-19T11:59:21;33.35;;;22.38;;
64875;SDS011;51369;49.862;9.908;2023-10-19T12:01:46;28.55;;;21.92;;
64875;SDS011;51369;49.862;9.908;2023-10-19T12:04:12;29.33;;;21.85;;
64875;SDS011;51369;49.862;9.908;2023-10-19T12:06:38;29.63;;;22.33;;
64875;SDS011;51369;49.862;9.908;2023-10-19T12:09:04;32.08;;;21.70;;
64875;SDS011;51369;49.862;9.908;2023-10-19T12:11:39;32.20;;;21.73;;
64875;SDS011;51369;49.862;9.908;2023-10-19T12:14:09;28.90;;;22.17;;
64875;SDS011;51369;49.862;9.908;2023-10-19T12:16:37;25.75;;;20.80;;
64875;SDS011;51369;49.862;9.908;2023-10-19T12:19:04;29.92;;;19.23;;
64875;SDS011;51369;49.862;9.908;2023-10-19T12:21:30;29.77;;;21.63;;
64875;SDS011;51369;49.862;9.908;2023-10-19T12:23:56;27.58;;;21.35;;
64875;SDS011;51369;49.862;9.908;2023-10-19T12:26:24;28.27;;;21.15;;
64875;SDS011;51369;49.862;9.908;2023-10-19T12:28:50;29.70;;;19.85;;
64875;SDS011;51369;49.862;9.908;2023-10-19T12:31:15;27.63;;;21.35;;
64875;SDS011;51369;49.862;9.908;2023-10-19T12:33:43;25.15;;;19.25;;
64875;SDS011;51369;49.862;9.908;2023-10-19T12:36:09;30.67;;;18.65;;
64875;SDS011;51369;49.862;9.908;2023-10-19T12:38:50;23.38;;;17.63;;
64875;SDS011;51369;49.862;9.908;2023-10-19T12:41:18;24.98;;;18.13;;
64875;SDS011;51369;49.862;9.908;2023-10-19T12:43:44;23.58;;;17.80;;
64875;SDS011;51369;49.862;9.908;2023-10-19T12:46:11;20.42;;;16.33;;
64875;SDS011;51369;49.862;9.908;2023-10-19T12:48:38;21.25;;;15.82;;
64875;SDS011;51369;49.862;9.908;2023-10-19T12:51:03;23.70;;;16.95;;
64875;SDS011;51369;49.862;9.908;2023-10-19T12:53:32;19.63;;;15.93;;
64875;SDS011;51369;49.862;9.908;2023-10-19T12:55:58;23.20;;;15.52;;
64875;SDS011;51369;49.862;9.908;2023-10-19T12:58:24;23.83;;;16.42;;
64875;SDS011;51369;49.862;9.908;2023-10-19T13:00:52;23.95;;;16.05;;
64875;SDS011;51369;49.862;9.908;2023-10-19T13:03:19;23.95;;;16.58;;
64875;SDS011;51369;49.862;9.908;2023-10-19T13:05:47;25.67;;;17.08;;
64875;SDS011;51369;49.862;9.908;2023-10-19T13:08:15;23.15;;;16.15;;
64875;SDS011;51369;49.862;9.908;2023-10-19T13:10:44;22.30;;;16.33;;
64875;SDS011;51369;49.862;9.908;2023-10-19T13:13:11;22.42;;;16.05;;
64875;SDS011;51369;49.862;9.908;2023-10-19T13:15:40;22.00;;;15.40;;
64875;SDS011;51369;49.862;9.908;2023-10-19T13:18:07;19.33;;;16.30;;
64875;SDS011;51369;49.862;9.908;2023-10-19T13:20:39;18.17;;;14.77;;
64875;SDS011;51369;49.862;9.908;2023-10-19T13:23:09;25.70;;;16.30;;
64875;SDS011;51369;49.862;9.908;2023-10-19T13:25:41;21.08;;;16.15;;
64875;SDS011;51369;49.862;9.908;2023-10-19T13:28:11;22.85;;;16.58;;
64875;SDS011;51369;49.862;9.908;2023-10-19T13:30:38;22.17;;;15.57;;
64875;SDS011;51369;49.862;9.908;2023-10-19T13:33:08;23.42;;;16.88;;
64875;SDS011;51369;49.862;9.908;2023-10-19T13:35:38;21.17;;;15.15;;
64875;SDS011;51369;49.862;9.908;2023-10-19T13:38:05;29.05;;;17.83;;
64875;SDS011;51369;49.862;9.908;2023-10-19T13:40:31;22.15;;;17.08;;
64875;SDS011;51369;49.862;9.908;2023-10-19T13:42:57;23.55;;;17.63;;
64875;SDS011;51369;49.862;9.908;2023-10-19T13:45:24;23.98;;;17.85;;
64875;SDS011;51369;49.862;9.908;2023-10-19T13:47:50;21.42;;;17.20;;
64875;SDS011;51369;49.862;9.908;2023-10-19T13:50:21;23.02;;;18.27;;
64875;SDS011;51369;49.862;9.908;2023-10-19T13:52:48;23.20;;;15.10;;
64875;SDS011;51369;49.862;9.908;2023-10-19T13:55:15;20.73;;;15.45;;
64875;SDS011;51369;49.862;9.908;2023-10-19T13:57:43;25.42;;;15.25;;
64875;SDS011;51369;49.862;9.908;2023-10-19T14:00:09;21.27;;;16.42;;
64875;SDS011;51369;49.862;9.908;2023-10-19T14:02:35;25.23;;;18.92;;
64875;SDS011;51369;49.862;9.908;2023-10-19T14:05:02;26.33;;;18.38;;
64875;SDS011;51369;49.862;9.908;2023-10-19T14:07:29;25.33;;;18.33;;
64875;SDS011;51369;49.862;9.908;2023-10-19T14:09:56;25.05;;;17.98;;
64875;SDS011;51369;49.862;9.908;2023-10-19T14:12:21;25.05;;;18.95;;
64875;SDS011;51369;49.862;9.908;2023-10-19T14:14:47;29.25;;;18.75;;
64875;SDS011;51369;49.862;9.908;2023-10-19T14:17:13;26.25;;;18.25;;
64875;SDS011;51369;49.862;9.908;2023-10-19T14:19:38;24.38;;;18.10;;
64875;SDS011;51369;49.862;9.908;2023-10-19T14:22:10;24.92;;;17.40;;
64875;SDS011;51369;49.862;9.908;2023-10-19T14:24:35;24.60;;;17.73;;
64875;SDS011;51369;49.862;9.908;2023-10-19T14:27:00;26.40;;;18.23;;
64875;SDS011;51369;49.862;9.908;2023-10-19T14:29:26;24.75;;;18.67;;
64875;SDS011;51369;49.862;9.908;2023-10-19T14:31:51;26.45;;;18.70;;
64875;SDS011;51369;49.862;9.908;2023-10-19T14:34:16;26.88;;;19.27;;
64875;SDS011;51369;49.862;9.908;2023-10-19T14:36:43;22.65;;;18.05;;
64875;SDS011;51369;49.862;9.908;2023-10-19T14:39:08;26.65;;;18.52;;
64875;SDS011;51369;49.862;9.908;2023-10-19T14:41:34;30.05;;;20.27;;